sensor_id;sensor_type;location;lat;lon;timestamp;P1;durP1;ratioP1;P2;durP2;ratioP2
65560;SDS011;58166;52.100;6.308;2022-07-10T00:00:39;4.78;;;1.55;;
65560;SDS011;58166;52.100;6.308;2022-07-10T00:03:08;6.28;;;1.23;;
65560;SDS011;58166;52.100;6.308;2022-07-10T00:05:35;5.22;;;1.30;;
65560;SDS011;58166;52.100;6.308;2022-07-10T00:08:03;4.60;;;1.30;;
65560;SDS011;58166;52.100;6.308;2022-07-10T00:10:31;4.47;;;1.10;;
65560;SDS011;58166;52.100;6.308;2022-07-10T00:12:59;5.32;;;1.10;;
65560;SDS011;58166;52.100;6.308;2022-07-10T00:15:27;1.85;;;0.82;;
65560;SDS011;58166;52.100;6.308;2022-07-10T00:17:54;6.43;;;1.25;;
65560;SDS011;58166;52.100;6.308;2022-07-10T00:20:23;3.85;;;1.08;;
65560;SDS011;58166;52.100;6.308;2022-07-10T00:22:51;5.70;;;1.10;;
65560;SDS011;58166;52.100;6.308;2022-07-10T00:25:26;5.10;;;1.15;;
65560;SDS011;58166;52.100;6.308;2022-07-10T00:27:53;4.72;;;0.90;;
65560;SDS011;58166;52.100;6.308;2022-07-10T00:30:21;5.45;;;1.20;;
65560;SDS011;58166;52.100;6.308;2022-07-10T00:32:49;2.60;;;1.45;;
65560;SDS011;58166;52.100;6.308;2022-07-10T00:35:16;4.18;;;1.05;;
65560;SDS011;58166;52.100;6.308;2022-07-10T00:37:45;4.90;;;0.95;;
65560;SDS011;58166;52.100;6.308;2022-07-10T00:40:12;4.68;;;1.30;;
65560;SDS011;58166;52.100;6.308;2022-07-10T00:42:40;3.10;;;1.08;;
65560;SDS011;58166;52.100;6.308;2022-07-10T00:45:07;3.63;;;1.00;;
65560;SDS011;58166;52.100;6.308;2022-07-10T00:47:35;7.10;;;1.13;;
65560;SDS011;58166;52.100;6.308;2022-07-10T00:50:03;2.85;;;1.05;;
65560;SDS011;58166;52.100;6.308;2022-07-10T00:52:30;3.92;;;1.27;;
65560;SDS011;58166;52.100;6.308;2022-07-10T00:55:01;3.58;;;0.85;;
65560;SDS011;58166;52.100;6.308;2022-07-10T00:57:28;6.07;;;1.40;;
65560;SDS011;58166;52.100;6.308;2022-07-10T00:59:56;3.70;;;1.00;;
65560;SDS011;58166;52.100;6.308;2022-07-10T01:02:23;3.90;;;1.13;;
65560;SDS011;58166;52.100;6.308;2022-07-10T01:04:51;5.72;;;1.60;;
65560;SDS011;58166;52.100;6.308;2022-07-10T01:07:19;6.07;;;1.40;;
65560;SDS011;58166;52.100;6.308;2022-07-10T01:09:46;5.78;;;1.50;;
65560;SDS011;58166;52.100;6.308;2022-07-10T01:12:15;6.47;;;1.80;;
65560;SDS011;58166;52.100;6.308;2022-07-10T01:14:43;4.57;;;1.30;;
65560;SDS011;58166;52.100;6.308;2022-07-10T01:17:11;6.88;;;1.40;;
65560;SDS011;58166;52.100;6.308;2022-07-10T01:19:38;2.35;;;0.82;;
65560;SDS011;58166;52.100;6.308;2022-07-10T01:22:07;4.82;;;1.30;;
65560;SDS011;58166;52.100;6.308;2022-07-10T01:24:35;3.53;;;1.52;;
65560;SDS011;58166;52.100;6.308;2022-07-10T01:27:03;3.15;;;1.45;;
65560;SDS011;58166;52.100;6.308;2022-07-10T01:29:30;7.72;;;1.40;;
65560;SDS011;58166;52.100;6.308;2022-07-10T01:31:58;5.22;;;1.40;;
65560;SDS011;58166;52.100;6.308;2022-07-10T01:34:27;4.03;;;1.15;;
65560;SDS011;58166;52.100;6.308;2022-07-10T01:36:55;4.18;;;1.23;;
65560;SDS011;58166;52.100;6.308;2022-07-10T01:39:23;2.90;;;1.13;;
65560;SDS011;58166;52.100;6.308;2022-07-10T01:41:51;3.17;;;1.20;;
65560;SDS011;58166;52.100;6.308;2022-07-10T01:44:18;4.00;;;1.30;;
65560;SDS011;58166;52.100;6.308;2022-07-10T01:46:46;3.85;;;1.35;;
65560;SDS011;58166;52.100;6.308;2022-07-10T01:49:15;5.00;;;1.20;;
65560;SDS011;58166;52.100;6.308;2022-07-10T01:51:42;6.10;;;1.23;;
65560;SDS011;58166;52.100;6.308;2022-07-10T01:54:10;3.95;;;1.00;;
65560;SDS011;58166;52.100;6.308;2022-07-10T01:56:39;6.20;;;1.63;;
65560;SDS011;58166;52.100;6.308;2022-07-10T01:59:06;4.13;;;1.88;;
65560;SDS011;58166;52.100;6.308;2022-07-10T02:01:34;3.85;;;1.30;;
65560;SDS011;58166;52.100;6.308;2022-07-10T02:04:03;7.55;;;1.50;;
65560;SDS011;58166;52.100;6.308;2022-07-10T02:06:48;5.95;;;1.95;;
65560;SDS011;58166;52.100;6.308;2022-07-10T02:09:16;4.22;;;1.50;;
65560;SDS011;58166;52.100;6.308;2022-07-10T02:11:44;3.60;;;1.40;;
65560;SDS011;58166;52.100;6.308;2022-07-10T02:14:12;8.10;;;1.80;;
65560;SDS011;58166;52.100;6.308;2022-07-10T02:16:40;5.95;;;1.80;;
65560;SDS011;58166;52.100;6.308;2022-07-10T02:19:07;3.25;;;1.40;;
65560;SDS011;58166;52.100;6.308;2022-07-10T02:21:35;5.65;;;1.73;;
65560;SDS011;58166;52.100;6.308;2022-07-10T02:24:03;5.45;;;1.50;;
65560;SDS011;58166;52.100;6.308;2022-07-10T02:26:30;4.55;;;1.48;;
65560;SDS011;58166;52.100;6.308;2022-07-10T02:28:59;4.43;;;1.42;;
65560;SDS011;58166;52.100;6.308;2022-07-10T02:31:26;7.13;;;1.73;;
65560;SDS011;58166;52.100;6.308;2022-07-10T02:33:54;4.97;;;1.52;;
65560;SDS011;58166;52.100;6.308;2022-07-10T02:36:21;6.45;;;1.52;;
65560;SDS011;58166;52.100;6.308;2022-07-10T02:38:49;4.70;;;1.75;;
65560;SDS011;58166;52.100;6.308;2022-07-10T02:41:16;5.38;;;1.70;;
65560;SDS011;58166;52.100;6.308;2022-07-10T02:43:44;2.95;;;1.48;;
65560;SDS011;58166;52.100;6.308;2022-07-10T02:46:13;3.75;;;1.30;;
65560;SDS011;58166;52.100;6.308;2022-07-10T02:48:40;2.28;;;1.63;;
65560;SDS011;58166;52.100;6.308;2022-07-10T02:51:08;6.40;;;1.80;;
65560;SDS011;58166;52.100;6.308;2022-07-10T02:53:35;5.20;;;1.70;;
65560;SDS011;58166;52.100;6.308;2022-07-10T02:56:03;11.30;;;2.40;;
65560;SDS011;58166;52.100;6.308;2022-07-10T02:58:31;2.92;;;1.50;;
65560;SDS011;58166;52.100;6.308;2022-07-10T03:00:58;5.45;;;1.42;;
65560;SDS011;58166;52.100;6.308;2022-07-10T03:03:27;7.05;;;2.03;;
65560;SDS011;58166;52.100;6.308;2022-07-10T03:05:55;6.63;;;1.70;;
65560;SDS011;58166;52.100;6.308;2022-07-10T03:08:22;4.80;;;1.73;;
65560;SDS011;58166;52.100;6.308;2022-07-10T03:10:50;3.78;;;1.60;;
65560;SDS011;58166;52.100;6.308;2022-07-10T03:13:17;4.60;;;1.55;;
65560;SDS011;58166;52.100;6.308;2022-07-10T03:15:45;4.28;;;1.63;;
65560;SDS011;58166;52.100;6.308;2022-07-10T03:18:12;3.85;;;1.65;;
65560;SDS011;58166;52.100;6.308;2022-07-10T03:20:41;2.90;;;1.40;;
65560;SDS011;58166;52.100;6.308;2022-07-10T03:23:08;2.28;;;1.42;;
65560;SDS011;58166;52.100;6.308;2022-07-10T03:25:36;4.13;;;1.48;;
65560;SDS011;58166;52.100;6.308;2022-07-10T03:28:03;4.60;;;1.90;;
65560;SDS011;58166;52.100;6.308;2022-07-10T03:30:31;4.75;;;1.60;;
65560;SDS011;58166;52.100;6.308;2022-07-10T03:32:58;6.18;;;1.98;;
65560;SDS011;58166;52.100;6.308;2022-07-10T03:35:27;6.45;;;1.67;;
65560;SDS011;58166;52.100;6.308;2022-07-10T03:37:58;3.50;;;1.50;;
65560;SDS011;58166;52.100;6.308;2022-07-10T03:40:26;3.88;;;1.77;;
65560;SDS011;58166;52.100;6.308;2022-07-10T03:42:54;3.80;;;1.38;;
65560;SDS011;58166;52.100;6.308;2022-07-10T03:45:21;5.45;;;1.38;;
65560;SDS011;58166;52.100;6.308;2022-07-10T03:47:49;6.07;;;1.50;;
65560;SDS011;58166;52.100;6.308;2022-07-10T03:50:17;7.10;;;1.48;;
65560;SDS011;58166;52.100;6.308;2022-07-10T03:52:44;4.43;;;1.58;;
65560;SDS011;58166;52.100;6.308;2022-07-10T03:55:13;4.38;;;1.73;;
65560;SDS011;58166;52.100;6.308;2022-07-10T03:57:41;2.70;;;1.50;;
65560;SDS011;58166;52.100;6.308;2022-07-10T04:00:20;3.53;;;1.45;;
65560;SDS011;58166;52.100;6.308;2022-07-10T04:02:53;5.22;;;1.63;;
65560;SDS011;58166;52.100;6.308;2022-07-10T04:05:21;5.57;;;1.60;;
65560;SDS011;58166;52.100;6.308;2022-07-10T04:07:49;7.95;;;1.50;;
65560;SDS011;58166;52.100;6.308;2022-07-10T04:10:18;5.93;;;1.50;;
65560;SDS011;58166;52.100;6.308;2022-07-10T04:12:45;4.47;;;1.73;;
65560;SDS011;58166;52.100;6.308;2022-07-10T04:15:14;3.95;;;1.48;;
65560;SDS011;58166;52.100;6.308;2022-07-10T04:17:41;5.07;;;1.75;;
65560;SDS011;58166;52.100;6.308;2022-07-10T04:20:09;6.45;;;2.00;;
65560;SDS011;58166;52.100;6.308;2022-07-10T04:22:37;5.68;;;1.60;;
65560;SDS011;58166;52.100;6.308;2022-07-10T04:25:04;2.90;;;1.33;;
65560;SDS011;58166;52.100;6.308;2022-07-10T04:27:34;3.30;;;1.70;;
65560;SDS011;58166;52.100;6.308;2022-07-10T04:30:02;5.00;;;1.40;;
65560;SDS011;58166;52.100;6.308;2022-07-10T04:32:29;5.03;;;1.50;;
65560;SDS011;58166;52.100;6.308;2022-07-10T04:34:58;4.90;;;1.40;;
65560;SDS011;58166;52.100;6.308;2022-07-10T04:37:27;4.30;;;1.50;;
65560;SDS011;58166;52.100;6.308;2022-07-10T04:39:55;4.93;;;1.63;;
65560;SDS011;58166;52.100;6.308;2022-07-10T04:42:24;4.93;;;2.05;;
65560;SDS011;58166;52.100;6.308;2022-07-10T04:44:53;3.47;;;1.42;;
65560;SDS011;58166;52.100;6.308;2022-07-10T04:47:21;7.30;;;1.60;;
65560;SDS011;58166;52.100;6.308;2022-07-10T04:49:48;4.03;;;1.67;;
65560;SDS011;58166;52.100;6.308;2022-07-10T04:52:15;3.63;;;1.38;;
65560;SDS011;58166;52.100;6.308;2022-07-10T04:54:43;4.75;;;1.60;;
65560;SDS011;58166;52.100;6.308;2022-07-10T04:57:10;4.43;;;1.50;;
65560;SDS011;58166;52.100;6.308;2022-07-10T04:59:38;5.07;;;1.80;;
65560;SDS011;58166;52.100;6.308;2022-07-10T05:02:07;3.35;;;1.65;;
65560;SDS011;58166;52.100;6.308;2022-07-10T05:04:35;6.32;;;1.58;;
65560;SDS011;58166;52.100;6.308;2022-07-10T05:07:02;3.78;;;1.90;;
65560;SDS011;58166;52.100;6.308;2022-07-10T05:09:30;6.25;;;1.50;;
65560;SDS011;58166;52.100;6.308;2022-07-10T05:11:57;7.55;;;1.90;;
65560;SDS011;58166;52.100;6.308;2022-07-10T05:14:25;3.72;;;1.55;;
65560;SDS011;58166;52.100;6.308;2022-07-10T05:16:53;3.17;;;1.40;;
65560;SDS011;58166;52.100;6.308;2022-07-10T05:19:22;5.15;;;1.50;;
65560;SDS011;58166;52.100;6.308;2022-07-10T05:21:49;5.43;;;2.05;;
65560;SDS011;58166;52.100;6.308;2022-07-10T05:24:16;7.38;;;1.75;;
65560;SDS011;58166;52.100;6.308;2022-07-10T05:26:44;3.55;;;1.35;;
65560;SDS011;58166;52.100;6.308;2022-07-10T05:29:11;5.30;;;1.52;;
65560;SDS011;58166;52.100;6.308;2022-07-10T05:31:39;5.53;;;1.75;;
65560;SDS011;58166;52.100;6.308;2022-07-10T05:34:06;4.65;;;1.60;;
65560;SDS011;58166;52.100;6.308;2022-07-10T05:36:35;3.75;;;1.40;;
65560;SDS011;58166;52.100;6.308;2022-07-10T05:39:03;4.18;;;1.52;;
65560;SDS011;58166;52.100;6.308;2022-07-10T05:41:30;5.30;;;1.80;;
65560;SDS011;58166;52.100;6.308;2022-07-10T05:43:58;2.85;;;1.40;;
65560;SDS011;58166;52.100;6.308;2022-07-10T05:46:26;4.38;;;1.60;;
65560;SDS011;58166;52.100;6.308;2022-07-10T05:48:54;4.45;;;1.55;;
65560;SDS011;58166;52.100;6.308;2022-07-10T05:51:21;5.43;;;1.40;;
65560;SDS011;58166;52.100;6.308;2022-07-10T05:53:58;6.70;;;1.70;;
65560;SDS011;58166;52.100;6.308;2022-07-10T05:56:26;4.70;;;1.50;;
65560;SDS011;58166;52.100;6.308;2022-07-10T05:58:54;5.50;;;2.00;;
65560;SDS011;58166;52.100;6.308;2022-07-10T06:01:22;6.03;;;1.65;;
65560;SDS011;58166;52.100;6.308;2022-07-10T06:03:50;5.72;;;1.55;;
65560;SDS011;58166;52.100;6.308;2022-07-10T06:06:17;6.05;;;1.73;;
65560;SDS011;58166;52.100;6.308;2022-07-10T06:08:45;5.43;;;1.52;;
65560;SDS011;58166;52.100;6.308;2022-07-10T06:11:14;7.00;;;1.40;;
65560;SDS011;58166;52.100;6.308;2022-07-10T06:13:42;6.32;;;1.73;;
65560;SDS011;58166;52.100;6.308;2022-07-10T06:16:09;5.65;;;1.40;;
65560;SDS011;58166;52.100;6.308;2022-07-10T06:18:37;3.53;;;1.60;;
65560;SDS011;58166;52.100;6.308;2022-07-10T06:21:05;5.45;;;1.60;;
65560;SDS011;58166;52.100;6.308;2022-07-10T06:23:34;4.13;;;1.30;;
65560;SDS011;58166;52.100;6.308;2022-07-10T06:26:01;4.25;;;1.63;;
65560;SDS011;58166;52.100;6.308;2022-07-10T06:28:30;4.50;;;1.33;;
65560;SDS011;58166;52.100;6.308;2022-07-10T06:30:58;5.03;;;1.60;;
65560;SDS011;58166;52.100;6.308;2022-07-10T06:33:26;5.07;;;1.52;;
65560;SDS011;58166;52.100;6.308;2022-07-10T06:35:53;7.40;;;1.50;;
65560;SDS011;58166;52.100;6.308;2022-07-10T06:38:21;5.45;;;1.40;;
65560;SDS011;58166;52.100;6.308;2022-07-10T06:40:49;5.45;;;1.38;;
65560;SDS011;58166;52.100;6.308;2022-07-10T06:43:17;4.82;;;1.50;;
65560;SDS011;58166;52.100;6.308;2022-07-10T06:45:45;3.58;;;1.38;;
65560;SDS011;58166;52.100;6.308;2022-07-10T06:48:13;3.35;;;1.40;;
65560;SDS011;58166;52.100;6.308;2022-07-10T06:50:41;4.35;;;1.55;;
65560;SDS011;58166;52.100;6.308;2022-07-10T06:53:08;4.45;;;1.75;;
65560;SDS011;58166;52.100;6.308;2022-07-10T06:55:36;5.07;;;1.38;;
65560;SDS011;58166;52.100;6.308;2022-07-10T06:58:05;5.25;;;1.63;;
65560;SDS011;58166;52.100;6.308;2022-07-10T07:00:32;5.63;;;1.30;;
65560;SDS011;58166;52.100;6.308;2022-07-10T07:03:01;8.48;;;1.50;;
65560;SDS011;58166;52.100;6.308;2022-07-10T07:05:28;3.03;;;1.30;;
65560;SDS011;58166;52.100;6.308;2022-07-10T07:07:56;10.82;;;1.83;;
65560;SDS011;58166;52.100;6.308;2022-07-10T07:10:23;3.72;;;1.17;;
65560;SDS011;58166;52.100;6.308;2022-07-10T07:12:51;2.15;;;1.27;;
65560;SDS011;58166;52.100;6.308;2022-07-10T07:15:19;3.78;;;1.27;;
65560;SDS011;58166;52.100;6.308;2022-07-10T07:17:49;3.90;;;1.40;;
65560;SDS011;58166;52.100;6.308;2022-07-10T07:20:38;6.15;;;1.40;;
65560;SDS011;58166;52.100;6.308;2022-07-10T07:23:23;5.28;;;1.80;;
65560;SDS011;58166;52.100;6.308;2022-07-10T07:25:51;4.68;;;2.85;;
65560;SDS011;58166;52.100;6.308;2022-07-10T07:28:19;4.32;;;1.50;;
65560;SDS011;58166;52.100;6.308;2022-07-10T07:30:47;4.82;;;1.30;;
65560;SDS011;58166;52.100;6.308;2022-07-10T07:33:14;9.15;;;1.80;;
65560;SDS011;58166;52.100;6.308;2022-07-10T07:35:43;6.88;;;1.48;;
65560;SDS011;58166;52.100;6.308;2022-07-10T07:38:11;4.28;;;1.70;;
65560;SDS011;58166;52.100;6.308;2022-07-10T07:40:38;3.88;;;1.63;;
65560;SDS011;58166;52.100;6.308;2022-07-10T07:43:06;3.53;;;1.60;;
65560;SDS011;58166;52.100;6.308;2022-07-10T07:45:33;5.78;;;1.83;;
65560;SDS011;58166;52.100;6.308;2022-07-10T07:48:01;5.10;;;2.08;;
65560;SDS011;58166;52.100;6.308;2022-07-10T07:50:29;3.55;;;1.58;;
65560;SDS011;58166;52.100;6.308;2022-07-10T07:52:59;5.63;;;1.70;;
65560;SDS011;58166;52.100;6.308;2022-07-10T07:55:27;3.50;;;1.60;;
65560;SDS011;58166;52.100;6.308;2022-07-10T07:57:56;6.43;;;1.55;;
65560;SDS011;58166;52.100;6.308;2022-07-10T08:00:24;5.13;;;1.60;;
65560;SDS011;58166;52.100;6.308;2022-07-10T08:02:52;5.38;;;1.48;;
65560;SDS011;58166;52.100;6.308;2022-07-10T08:05:20;6.63;;;1.65;;
65560;SDS011;58166;52.100;6.308;2022-07-10T08:07:50;4.25;;;1.40;;
65560;SDS011;58166;52.100;6.308;2022-07-10T08:10:20;5.10;;;1.63;;
65560;SDS011;58166;52.100;6.308;2022-07-10T08:12:48;2.95;;;1.48;;
65560;SDS011;58166;52.100;6.308;2022-07-10T08:15:16;5.30;;;1.27;;
65560;SDS011;58166;52.100;6.308;2022-07-10T08:17:46;4.18;;;1.27;;
65560;SDS011;58166;52.100;6.308;2022-07-10T08:20:14;6.15;;;1.20;;
65560;SDS011;58166;52.100;6.308;2022-07-10T08:22:41;1.35;;;1.13;;
65560;SDS011;58166;52.100;6.308;2022-07-10T08:25:09;5.00;;;1.30;;
65560;SDS011;58166;52.100;6.308;2022-07-10T08:27:38;3.60;;;1.40;;
65560;SDS011;58166;52.100;6.308;2022-07-10T08:30:06;5.18;;;1.67;;
65560;SDS011;58166;52.100;6.308;2022-07-10T08:32:35;2.45;;;1.40;;
65560;SDS011;58166;52.100;6.308;2022-07-10T08:35:02;3.60;;;1.27;;
65560;SDS011;58166;52.100;6.308;2022-07-10T08:37:32;4.38;;;1.25;;
65560;SDS011;58166;52.100;6.308;2022-07-10T08:40:04;2.17;;;1.02;;
65560;SDS011;58166;52.100;6.308;2022-07-10T08:42:32;2.03;;;1.10;;
65560;SDS011;58166;52.100;6.308;2022-07-10T08:45:01;7.22;;;1.20;;
65560;SDS011;58166;52.100;6.308;2022-07-10T08:47:29;1.60;;;0.90;;
65560;SDS011;58166;52.100;6.308;2022-07-10T08:50:03;1.45;;;0.73;;
65560;SDS011;58166;52.100;6.308;2022-07-10T08:52:32;1.83;;;0.95;;
65560;SDS011;58166;52.100;6.308;2022-07-10T08:55:00;2.33;;;1.00;;
65560;SDS011;58166;52.100;6.308;2022-07-10T08:57:28;1.50;;;1.00;;
65560;SDS011;58166;52.100;6.308;2022-07-10T08:59:57;2.10;;;1.08;;
65560;SDS011;58166;52.100;6.308;2022-07-10T09:02:26;3.75;;;1.55;;
65560;SDS011;58166;52.100;6.308;2022-07-10T09:04:54;5.70;;;2.00;;
65560;SDS011;58166;52.100;6.308;2022-07-10T09:07:21;2.53;;;1.60;;
65560;SDS011;58166;52.100;6.308;2022-07-10T09:09:51;6.25;;;1.88;;
65560;SDS011;58166;52.100;6.308;2022-07-10T09:12:19;2.38;;;1.40;;
65560;SDS011;58166;52.100;6.308;2022-07-10T09:14:48;4.20;;;2.00;;
65560;SDS011;58166;52.100;6.308;2022-07-10T09:17:16;8.00;;;2.63;;
65560;SDS011;58166;52.100;6.308;2022-07-10T09:19:45;2.90;;;2.00;;
65560;SDS011;58166;52.100;6.308;2022-07-10T09:22:13;4.95;;;1.80;;
65560;SDS011;58166;52.100;6.308;2022-07-10T09:24:42;3.75;;;1.90;;
65560;SDS011;58166;52.100;6.308;2022-07-10T09:27:10;4.93;;;1.80;;
65560;SDS011;58166;52.100;6.308;2022-07-10T09:29:44;5.18;;;1.92;;
65560;SDS011;58166;52.100;6.308;2022-07-10T09:32:13;2.58;;;2.00;;
65560;SDS011;58166;52.100;6.308;2022-07-10T09:34:42;4.60;;;2.30;;
65560;SDS011;58166;52.100;6.308;2022-07-10T09:37:24;6.22;;;2.10;;
65560;SDS011;58166;52.100;6.308;2022-07-10T09:39:53;4.72;;;2.08;;
65560;SDS011;58166;52.100;6.308;2022-07-10T09:42:25;4.82;;;2.17;;
65560;SDS011;58166;52.100;6.308;2022-07-10T09:47:23;5.10;;;2.63;;
65560;SDS011;58166;52.100;6.308;2022-07-10T09:49:51;6.55;;;2.30;;
65560;SDS011;58166;52.100;6.308;2022-07-10T09:52:18;4.57;;;2.20;;
65560;SDS011;58166;52.100;6.308;2022-07-10T09:54:47;4.22;;;2.15;;
65560;SDS011;58166;52.100;6.308;2022-07-10T09:57:15;3.65;;;2.30;;
65560;SDS011;58166;52.100;6.308;2022-07-10T09:59:43;3.13;;;1.80;;
65560;SDS011;58166;52.100;6.308;2022-07-10T10:02:11;7.75;;;1.92;;
65560;SDS011;58166;52.100;6.308;2022-07-10T10:04:40;3.30;;;1.95;;
65560;SDS011;58166;52.100;6.308;2022-07-10T10:07:09;5.28;;;2.47;;
65560;SDS011;58166;52.100;6.308;2022-07-10T10:09:40;4.28;;;1.80;;
65560;SDS011;58166;52.100;6.308;2022-07-10T10:12:11;3.72;;;1.98;;
65560;SDS011;58166;52.100;6.308;2022-07-10T10:14:40;5.32;;;1.67;;
65560;SDS011;58166;52.100;6.308;2022-07-10T10:17:07;4.45;;;1.73;;
65560;SDS011;58166;52.100;6.308;2022-07-10T10:19:35;4.10;;;1.90;;
65560;SDS011;58166;52.100;6.308;2022-07-10T10:22:21;6.07;;;1.92;;
65560;SDS011;58166;52.100;6.308;2022-07-10T10:24:49;4.57;;;1.85;;
65560;SDS011;58166;52.100;6.308;2022-07-10T10:27:19;3.35;;;1.80;;
65560;SDS011;58166;52.100;6.308;2022-07-10T10:29:47;5.28;;;2.13;;
65560;SDS011;58166;52.100;6.308;2022-07-10T10:32:15;5.30;;;1.77;;
65560;SDS011;58166;52.100;6.308;2022-07-10T10:34:44;5.75;;;1.90;;
65560;SDS011;58166;52.100;6.308;2022-07-10T10:39:57;4.28;;;1.63;;
65560;SDS011;58166;52.100;6.308;2022-07-10T10:42:33;4.57;;;1.85;;
65560;SDS011;58166;52.100;6.308;2022-07-10T10:48:01;2.47;;;1.70;;
65560;SDS011;58166;52.100;6.308;2022-07-10T10:50:49;8.05;;;2.67;;
65560;SDS011;58166;52.100;6.308;2022-07-10T10:53:18;6.25;;;2.00;;
65560;SDS011;58166;52.100;6.308;2022-07-10T10:58:37;3.35;;;1.50;;
65560;SDS011;58166;52.100;6.308;2022-07-10T11:01:23;8.77;;;1.80;;
65560;SDS011;58166;52.100;6.308;2022-07-10T11:04:12;3.85;;;2.05;;
65560;SDS011;58166;52.100;6.308;2022-07-10T11:06:40;3.83;;;1.60;;
65560;SDS011;58166;52.100;6.308;2022-07-10T11:09:20;4.30;;;1.77;;
65560;SDS011;58166;52.100;6.308;2022-07-10T11:11:57;4.30;;;1.88;;
65560;SDS011;58166;52.100;6.308;2022-07-10T11:14:26;4.95;;;1.70;;
65560;SDS011;58166;52.100;6.308;2022-07-10T11:16:54;3.05;;;1.80;;
65560;SDS011;58166;52.100;6.308;2022-07-10T11:19:23;5.60;;;1.80;;
65560;SDS011;58166;52.100;6.308;2022-07-10T11:21:55;3.40;;;1.90;;
65560;SDS011;58166;52.100;6.308;2022-07-10T11:24:33;2.90;;;1.70;;
65560;SDS011;58166;52.100;6.308;2022-07-10T11:27:06;4.28;;;1.67;;
65560;SDS011;58166;52.100;6.308;2022-07-10T11:29:37;2.80;;;1.20;;
65560;SDS011;58166;52.100;6.308;2022-07-10T11:32:05;3.92;;;1.80;;
65560;SDS011;58166;52.100;6.308;2022-07-10T11:34:34;5.13;;;1.45;;
65560;SDS011;58166;52.100;6.308;2022-07-10T11:37:02;3.47;;;1.50;;
65560;SDS011;58166;52.100;6.308;2022-07-10T11:39:29;3.55;;;1.52;;
65560;SDS011;58166;52.100;6.308;2022-07-10T11:41:57;4.15;;;1.40;;
65560;SDS011;58166;52.100;6.308;2022-07-10T11:44:25;2.53;;;1.30;;
65560;SDS011;58166;52.100;6.308;2022-07-10T11:46:55;4.68;;;1.65;;
65560;SDS011;58166;52.100;6.308;2022-07-10T11:49:24;1.67;;;1.35;;
65560;SDS011;58166;52.100;6.308;2022-07-10T11:52:00;4.53;;;1.50;;
65560;SDS011;58166;52.100;6.308;2022-07-10T11:54:28;2.85;;;1.40;;
65560;SDS011;58166;52.100;6.308;2022-07-10T11:56:56;2.83;;;1.30;;
65560;SDS011;58166;52.100;6.308;2022-07-10T11:59:24;3.45;;;1.20;;
65560;SDS011;58166;52.100;6.308;2022-07-10T12:01:52;1.70;;;1.05;;
65560;SDS011;58166;52.100;6.308;2022-07-10T12:04:22;3.00;;;1.35;;
65560;SDS011;58166;52.100;6.308;2022-07-10T12:06:51;3.17;;;1.50;;
65560;SDS011;58166;52.100;6.308;2022-07-10T12:09:19;2.30;;;1.40;;
65560;SDS011;58166;52.100;6.308;2022-07-10T12:11:57;2.78;;;1.50;;
65560;SDS011;58166;52.100;6.308;2022-07-10T12:14:25;5.97;;;1.50;;
65560;SDS011;58166;52.100;6.308;2022-07-10T12:16:53;3.55;;;1.35;;
65560;SDS011;58166;52.100;6.308;2022-07-10T12:19:23;3.42;;;1.20;;
65560;SDS011;58166;52.100;6.308;2022-07-10T12:21:51;3.85;;;1.60;;
65560;SDS011;58166;52.100;6.308;2022-07-10T12:24:23;2.42;;;1.83;;
65560;SDS011;58166;52.100;6.308;2022-07-10T12:26:51;2.33;;;1.08;;
65560;SDS011;58166;52.100;6.308;2022-07-10T12:29:19;1.42;;;1.10;;
65560;SDS011;58166;52.100;6.308;2022-07-10T12:31:47;2.35;;;1.17;;
65560;SDS011;58166;52.100;6.308;2022-07-10T12:34:15;1.95;;;1.25;;
65560;SDS011;58166;52.100;6.308;2022-07-10T12:36:45;3.05;;;1.30;;
65560;SDS011;58166;52.100;6.308;2022-07-10T12:39:13;4.45;;;1.20;;
65560;SDS011;58166;52.100;6.308;2022-07-10T12:41:58;1.85;;;1.23;;
65560;SDS011;58166;52.100;6.308;2022-07-10T12:44:36;4.57;;;1.63;;
65560;SDS011;58166;52.100;6.308;2022-07-10T12:47:05;2.80;;;1.40;;
65560;SDS011;58166;52.100;6.308;2022-07-10T12:49:48;5.35;;;1.73;;
65560;SDS011;58166;52.100;6.308;2022-07-10T12:52:20;2.67;;;1.20;;
65560;SDS011;58166;52.100;6.308;2022-07-10T12:55:05;1.77;;;1.30;;
65560;SDS011;58166;52.100;6.308;2022-07-10T12:57:32;4.95;;;1.30;;
65560;SDS011;58166;52.100;6.308;2022-07-10T13:00:03;2.45;;;1.25;;
65560;SDS011;58166;52.100;6.308;2022-07-10T13:02:32;3.67;;;1.52;;
65560;SDS011;58166;52.100;6.308;2022-07-10T13:05:00;5.15;;;1.42;;
65560;SDS011;58166;52.100;6.308;2022-07-10T13:07:32;2.53;;;1.30;;
65560;SDS011;58166;52.100;6.308;2022-07-10T13:10:00;5.53;;;1.50;;
65560;SDS011;58166;52.100;6.308;2022-07-10T13:12:30;4.03;;;1.20;;
65560;SDS011;58166;52.100;6.308;2022-07-10T13:14:57;3.03;;;1.25;;
65560;SDS011;58166;52.100;6.308;2022-07-10T13:17:25;1.85;;;1.10;;
65560;SDS011;58166;52.100;6.308;2022-07-10T13:19:52;3.40;;;1.10;;
65560;SDS011;58166;52.100;6.308;2022-07-10T13:22:20;2.30;;;1.30;;
65560;SDS011;58166;52.100;6.308;2022-07-10T13:24:49;2.90;;;1.10;;
65560;SDS011;58166;52.100;6.308;2022-07-10T13:27:16;2.60;;;1.17;;
65560;SDS011;58166;52.100;6.308;2022-07-10T13:29:45;2.30;;;1.20;;
65560;SDS011;58166;52.100;6.308;2022-07-10T13:32:14;1.08;;;1.00;;
65560;SDS011;58166;52.100;6.308;2022-07-10T13:34:41;5.65;;;1.40;;
65560;SDS011;58166;52.100;6.308;2022-07-10T13:37:09;3.40;;;1.40;;
65560;SDS011;58166;52.100;6.308;2022-07-10T13:39:38;3.85;;;1.10;;
65560;SDS011;58166;52.100;6.308;2022-07-10T13:42:06;2.65;;;1.20;;
65560;SDS011;58166;52.100;6.308;2022-07-10T13:44:34;4.28;;;1.20;;
65560;SDS011;58166;52.100;6.308;2022-07-10T13:47:01;3.03;;;1.27;;
65560;SDS011;58166;52.100;6.308;2022-07-10T13:49:29;4.10;;;1.33;;
65560;SDS011;58166;52.100;6.308;2022-07-10T13:51:57;2.38;;;1.15;;
65560;SDS011;58166;52.100;6.308;2022-07-10T13:54:25;2.47;;;1.00;;
65560;SDS011;58166;52.100;6.308;2022-07-10T13:56:52;2.33;;;1.20;;
65560;SDS011;58166;52.100;6.308;2022-07-10T13:59:21;5.22;;;1.88;;
65560;SDS011;58166;52.100;6.308;2022-07-10T14:01:49;3.20;;;1.10;;
65560;SDS011;58166;52.100;6.308;2022-07-10T14:04:16;2.22;;;1.13;;
65560;SDS011;58166;52.100;6.308;2022-07-10T14:06:44;1.95;;;1.17;;
65560;SDS011;58166;52.100;6.308;2022-07-10T14:09:11;3.10;;;1.10;;
65560;SDS011;58166;52.100;6.308;2022-07-10T14:11:39;0.82;;;0.75;;
65560;SDS011;58166;52.100;6.308;2022-07-10T14:14:07;2.13;;;0.88;;
65560;SDS011;58166;52.100;6.308;2022-07-10T14:16:35;2.35;;;1.13;;
65560;SDS011;58166;52.100;6.308;2022-07-10T14:19:03;3.65;;;1.20;;
65560;SDS011;58166;52.100;6.308;2022-07-10T14:21:36;1.55;;;1.05;;
65560;SDS011;58166;52.100;6.308;2022-07-10T14:24:05;1.55;;;0.80;;
65560;SDS011;58166;52.100;6.308;2022-07-10T14:26:32;2.28;;;0.98;;
65560;SDS011;58166;52.100;6.308;2022-07-10T14:29:01;2.38;;;1.00;;
65560;SDS011;58166;52.100;6.308;2022-07-10T14:31:29;3.85;;;1.13;;
65560;SDS011;58166;52.100;6.308;2022-07-10T14:33:58;3.47;;;0.90;;
65560;SDS011;58166;52.100;6.308;2022-07-10T14:36:25;3.28;;;1.20;;
65560;SDS011;58166;52.100;6.308;2022-07-10T14:38:53;2.58;;;1.08;;
65560;SDS011;58166;52.100;6.308;2022-07-10T14:41:21;2.47;;;1.30;;
65560;SDS011;58166;52.100;6.308;2022-07-10T14:43:48;1.23;;;0.80;;
65560;SDS011;58166;52.100;6.308;2022-07-10T14:46:16;2.25;;;1.08;;
65560;SDS011;58166;52.100;6.308;2022-07-10T14:48:43;2.72;;;0.85;;
65560;SDS011;58166;52.100;6.308;2022-07-10T14:51:12;1.88;;;0.90;;
65560;SDS011;58166;52.100;6.308;2022-07-10T14:53:40;2.42;;;1.20;;
65560;SDS011;58166;52.100;6.308;2022-07-10T14:56:09;1.50;;;0.90;;
65560;SDS011;58166;52.100;6.308;2022-07-10T14:58:37;2.97;;;0.90;;
65560;SDS011;58166;52.100;6.308;2022-07-10T15:01:24;2.85;;;1.13;;
65560;SDS011;58166;52.100;6.308;2022-07-10T15:03:52;4.05;;;0.85;;
65560;SDS011;58166;52.100;6.308;2022-07-10T15:06:23;1.92;;;0.98;;
65560;SDS011;58166;52.100;6.308;2022-07-10T15:08:50;2.35;;;1.13;;